Airfield :
LOGIN :

Register | Disclaimer

   EN    FR    IT 

 










Legend :    VFR   Marginal VFR   IFR   Intensive IFR   Very Intensive IFR
Visi :
Ceiling :
>= 8 km
>= 3000ft
5 to 8 km
1000 to 3000 ft
1500m to 5 km
500 to 1000 ft
800 to 1500m
200 to 500 ft
< 800m
< 200 ft
Symbols :   Thunderstorms  Fog  Heavy snow  Heavy precipitations  Wind > 20 kt
SIGMETs :     Misc.  Thunderstorms  Icing  Turbulence  Mountain Waves  Volcanic Ashes







- Airport Elevation : 75 ft
- IATA code : YEO


EGDY - RNAS Yeovilton

CURRENT METAR :
  • 180650Z 15003KT 5000 BR FEW010 SCT090 BKN160 13/13 Q1015 BECMG 9999 FEW050 SCT090 RMK WHT BECMG BLU

EXPIRED METARs :
  • 180623Z 15001KT 4000 BR FEW050 SCT090 BKN160 12/12 Q1015 BECMG 9999 FEW050 SCT090 RMK GRN BECMG BLU
  • 180550Z 08002KT 4000 BR FEW050 SCT090 BKN160 11/11 Q1015 GRN
  • 180450Z 14003KT 4000 MIFG FEW050 BKN160 10/09 Q1015 GRN
  • 180350Z 09003KT 4000 MIFG FEW050 BKN160 10/09 Q1015 GRN

TAF TAF EGDY
Valid from the 18 at 06:00 until the 18 at 15:00 UTC


180505Z 1806/1815 VRB03KT 4000 BR MIFG FEW040
BECMG 1806/1809 9999 NSW SCT040
TEMPO 1810/1813 5000 RA SHRA BKN014
BECMG 1813/1815 02005KT
No reported NOTAMs for that airfield.



MET'MAP, your aeronautical weather chart ! - Copyright ORBIFLY December 2007 - Disclaimer

ORBIFLY MET'MAP TEAM :

Programming & Development : Alexandra Zaïnal
Concept & Development : Baudouin d'Aumeries
Co-Development & Prog : Marc-Olivier Méhu
Technical & hardware support : Manuel Goepfert

Contact : metmap@orbifly.com




SOURCES & CREDITS :

   NOAA